RJSM(METAR)
12/16 16:00
METAR RJSM 160700Z 27006KT 9999 FEW020 SCT050 BKN070 02/M06 Q1009
RMK 1CU020 3SC050 7AC070 A2980=
戻る
トップページへ戻る
IMOC Co,.Ltd.